Usol'ye-Sibirskoye, Russia
Current Conditions -  °F | °C
As of 7:30 PM on Saturday 25 Oct 2014 (Local Time) from UIII Reporting Station
Clear Clear  
Wind Chill:   Ceiling: Unl
Heat Index: 18°   Visibility: 6mi
Dew Point: 12°   Wind: 9mph
Humidity: 79%   Direction: 80°E
Pressure: 30.36"   Gusts: NA
Location:  52.45°N, 103.39°E
Report Text: UIII 251130Z 08004MPS CAVOK M08/M11 Q1028 NOSIG RMK QFE726/096830920260
Loading
Personal Weather Stations






























Interactive Weather Map
Tropical Storm Tracking
New forecast layout! Learn more

10-Day Weather Forecast

Advertisements
Track Severe Weather on mobile